Airfield :
LOGIN :

Register | Disclaimer

   EN    FR    IT 

 










Legend :    VFR   Marginal VFR   IFR   Intensive IFR   Very Intensive IFR
Visi :
Ceiling :
>= 8 km
>= 3000ft
5 to 8 km
1000 to 3000 ft
1500m to 5 km
500 to 1000 ft
800 to 1500m
200 to 500 ft
< 800m
< 200 ft
Symbols :   Thunderstorms  Fog  Heavy snow  Heavy precipitations  Wind > 20 kt
SIGMETs :     Misc.  Thunderstorms  Icing  Turbulence  Mountain Waves  Volcanic Ashes






- Airport Elevation : 56 ft
- IATA code : BZR


LFMU - Beziers / Vias

CURRENT METAR :
  • 131430Z AUTO 31017KT CAVOK 14/M00 Q1007 NOSIG

EXPIRED METARs :
  • 131400Z AUTO 31018KT CAVOK 14/M00 Q1007 NOSIG
  • 131330Z AUTO 30019KT CAVOK 13/M00 Q1007 NOSIG
  • 131300Z AUTO 30017KT CAVOK 14/M01 Q1006 NOSIG
  • 131230Z AUTO 34012KT 310V010 CAVOK 14/M01 Q1006 NOSIG
  • 131200Z AUTO 34009KT 310V010 CAVOK 13/01 Q1007 NOSIG
  • 131130Z AUTO 34005KT 260V040 CAVOK 12/02 Q1007 NOSIG

TAF TAF LFMU
Valid from the 13 at 09:00 until the 14 at 09:00 UTC


130800Z 1309/1409 31010KT CAVOK
TEMPO 1319/1405 VRB05KT
BECMG 1401/1404 BKN030
TEMPO 1406/1409 01010KT SHRA BKN020 BKN030TCU
ATIS : +33 4 67 90 88 88



MET'MAP, your aeronautical weather chart ! - Copyright ORBIFLY December 2007 - Disclaimer

ORBIFLY MET'MAP TEAM :

Programming & Development : Alexandra Zaïnal
Concept & Development : Baudouin d'Aumeries
Co-Development & Prog : Marc-Olivier Méhu
Technical & hardware support : Manuel Goepfert

Contact : metmap@orbifly.com




SOURCES & CREDITS :

   NOAA